createdAt,value
2022-08-22T00:01:08.686Z,4.97
2022-08-22T00:02:53.912Z,4.83
2022-08-22T00:02:58.023Z,5.83
2022-08-22T00:03:04.984Z,6.00
2022-08-22T00:03:07.586Z,6.00
2022-08-22T00:03:50.596Z,4.93
2022-08-22T00:06:24.377Z,6.27
2022-08-22T00:09:00.393Z,4.70
2022-08-22T00:11:37.775Z,5.00
2022-08-22T00:14:12.658Z,5.23
2022-08-22T00:16:46.571Z,5.40
2022-08-22T00:19:19.567Z,4.87
2022-08-22T00:21:57.618Z,4.87
2022-08-22T00:24:28.724Z,4.67
2022-08-22T00:27:01.959Z,5.70
2022-08-22T00:29:35.977Z,5.67
2022-08-22T00:32:12.228Z,4.37
2022-08-22T00:34:46.358Z,4.87
2022-08-22T00:37:20.454Z,4.10
2022-08-22T00:39:53.184Z,3.90
2022-08-22T00:42:34.559Z,5.03
2022-08-22T00:45:25.085Z,4.73
2022-08-22T00:47:59.160Z,4.80
2022-08-22T00:50:39.752Z,5.03
2022-08-22T00:53:26.065Z,5.30
2022-08-22T00:56:06.707Z,5.60
2022-08-22T00:58:51.861Z,6.07
2022-08-22T01:01:23.768Z,5.47
2022-08-22T01:03:59.077Z,6.17
2022-08-22T01:06:36.571Z,5.23
2022-08-22T01:09:11.089Z,5.03
2022-08-22T01:11:58.609Z,5.80
2022-08-22T01:14:37.837Z,4.90
2022-08-22T01:17:31.937Z,4.03
2022-08-22T01:20:29.426Z,4.37
2022-08-22T01:23:36.801Z,4.37
2022-08-22T01:26:37.811Z,5.10
2022-08-22T01:29:38.834Z,4.83
2022-08-22T01:32:44.665Z,5.40
2022-08-22T01:35:34.616Z,5.20
2022-08-22T01:38:36.642Z,4.80
2022-08-22T01:41:32.082Z,5.50
2022-08-22T01:44:08.994Z,4.73
2022-08-22T01:46:44.912Z,4.83
2022-08-22T01:49:20.868Z,4.30
2022-08-22T01:51:53.577Z,5.43
2022-08-22T01:54:45.145Z,4.70
2022-08-22T01:57:13.623Z,5.80
2022-08-22T01:59:43.605Z,5.30
2022-08-22T02:02:21.810Z,4.47
2022-08-22T02:04:55.234Z,4.90
2022-08-22T02:07:31.827Z,4.77
2022-08-22T02:10:09.280Z,5.13
2022-08-22T02:12:45.039Z,4.53
2022-08-22T02:15:20.130Z,4.13
2022-08-22T02:18:01.066Z,4.93
2022-08-22T02:20:32.602Z,4.50
2022-08-22T02:23:09.131Z,4.97
2022-08-22T02:25:50.900Z,5.17
2022-08-22T02:28:32.820Z,5.17
2022-08-22T02:31:08.420Z,4.93
2022-08-22T02:33:41.739Z,5.00
2022-08-22T02:36:16.735Z,4.63
2022-08-22T02:38:55.945Z,4.90
2022-08-22T02:41:27.698Z,5.10
2022-08-22T02:44:03.185Z,5.03
2022-08-22T02:46:34.791Z,5.30
2022-08-22T02:49:18.071Z,5.53
2022-08-22T02:51:51.554Z,4.87
2022-08-22T02:54:28.653Z,4.53
2022-08-22T02:57:01.579Z,5.07
2022-08-22T02:59:36.603Z,5.20
2022-08-22T03:02:28.872Z,4.90
2022-08-22T03:04:59.404Z,5.10
2022-08-22T03:07:34.623Z,4.53
2022-08-22T03:10:12.041Z,16.27
2022-08-22T03:12:44.785Z,8.63
2022-08-22T03:15:18.160Z,6.00
2022-08-22T03:17:51.065Z,5.73
2022-08-22T03:20:37.570Z,4.97
2022-08-22T03:23:12.414Z,4.70
2022-08-22T03:25:46.935Z,5.30
2022-08-22T03:28:19.376Z,6.00
2022-08-22T03:30:58.921Z,4.80
2022-08-22T03:33:28.805Z,4.50
2022-08-22T03:36:06.534Z,4.70
2022-08-22T03:39:16.598Z,4.50
2022-08-22T03:42:09.309Z,4.90
2022-08-22T03:45:14.559Z,4.40
2022-08-22T03:48:21.475Z,4.73
2022-08-22T03:51:23.738Z,3.77
2022-08-22T03:54:23.333Z,4.73
2022-08-22T03:57:19.749Z,4.73
2022-08-22T04:00:23.369Z,4.07
2022-08-22T04:03:22.368Z,7.90
2022-08-22T04:06:27.280Z,5.40
2022-08-22T04:09:30.621Z,4.60
2022-08-22T04:12:32.152Z,4.67
2022-08-22T04:15:25.451Z,4.70
2022-08-22T04:18:10.221Z,4.90
2022-08-22T04:21:00.902Z,4.50
2022-08-22T04:23:48.157Z,4.87
2022-08-22T04:26:19.041Z,4.57
2022-08-22T04:28:50.310Z,6.40
2022-08-22T04:31:23.130Z,5.30
2022-08-22T04:33:55.016Z,9.27
2022-08-22T04:36:26.405Z,9.63
2022-08-22T04:38:58.761Z,6.00
2022-08-22T04:41:33.911Z,4.90
2022-08-22T04:44:06.424Z,5.00
2022-08-22T04:46:40.431Z,13.23
2022-08-22T04:49:13.737Z,12.07
2022-08-22T04:51:46.077Z,6.83
2022-08-22T04:54:33.242Z,4.37
2022-08-22T04:57:12.421Z,4.40
2022-08-22T04:59:41.703Z,4.53
2022-08-22T05:02:11.600Z,13.00
2022-08-22T05:04:41.757Z,9.20
2022-08-22T05:07:14.825Z,4.20
2022-08-22T05:09:44.445Z,4.90
2022-08-22T05:12:16.388Z,6.13
2022-08-22T05:14:48.756Z,5.50
2022-08-22T05:17:18.766Z,3.87
2022-08-22T05:19:50.664Z,4.63
2022-08-22T05:22:23.952Z,4.60
2022-08-22T05:24:55.650Z,4.80
2022-08-22T05:27:25.848Z,4.67
2022-08-22T05:30:02.216Z,5.40
2022-08-22T05:32:36.618Z,15.00
2022-08-22T05:35:07.228Z,4.63
2022-08-22T05:37:39.623Z,5.27
2022-08-22T05:40:09.363Z,4.27
2022-08-22T05:42:38.417Z,4.40
2022-08-22T05:45:12.259Z,4.70
2022-08-22T05:47:43.583Z,4.13
2022-08-22T05:50:14.499Z,3.47
2022-08-22T05:52:52.595Z,3.70
2022-08-22T05:55:26.470Z,4.10
2022-08-22T05:58:11.873Z,4.30
2022-08-22T06:00:44.768Z,3.87
2022-08-22T06:03:18.256Z,3.73
2022-08-22T06:05:48.987Z,4.37
2022-08-22T06:08:21.270Z,4.37
2022-08-22T06:10:51.891Z,4.30
2022-08-22T06:13:24.438Z,4.00
2022-08-22T06:16:07.695Z,4.43
2022-08-22T06:18:38.184Z,4.67
2022-08-22T06:21:12.958Z,3.97
2022-08-22T06:23:43.925Z,4.40
2022-08-22T06:26:20.613Z,4.50
2022-08-22T06:28:54.631Z,5.20
2022-08-22T06:31:27.256Z,4.33
2022-08-22T06:33:58.949Z,5.57
2022-08-22T06:36:33.982Z,3.77
2022-08-22T06:39:09.086Z,6.33
2022-08-22T06:41:38.925Z,3.93
2022-08-22T06:44:08.739Z,4.70
2022-08-22T06:46:39.635Z,5.30
2022-08-22T06:49:09.471Z,4.50
2022-08-22T06:51:39.489Z,4.30
2022-08-22T06:54:12.694Z,4.80
2022-08-22T06:56:42.322Z,7.10
2022-08-22T06:59:14.895Z,4.80
2022-08-22T07:01:49.556Z,9.63
2022-08-22T07:04:18.277Z,8.40
2022-08-22T07:06:50.262Z,4.97
2022-08-22T07:09:24.110Z,8.67
2022-08-22T07:11:53.530Z,14.27
2022-08-22T07:14:29.568Z,4.77
2022-08-22T07:17:00.763Z,14.50
2022-08-22T07:19:32.542Z,5.90
2022-08-22T07:22:12.241Z,5.10
2022-08-22T07:24:44.611Z,5.60
2022-08-22T07:27:20.882Z,4.67
2022-08-22T07:29:56.118Z,3.33
2022-08-22T07:32:30.357Z,3.97
2022-08-22T07:35:07.714Z,3.90
2022-08-22T07:37:47.737Z,3.80
2022-08-22T07:40:25.217Z,4.10
2022-08-22T07:42:59.243Z,3.00
2022-08-22T07:45:34.909Z,2.87
2022-08-22T07:48:22.666Z,3.00
2022-08-22T07:51:01.537Z,3.00
2022-08-22T07:53:35.087Z,3.33
2022-08-22T07:56:07.184Z,2.73
2022-08-22T07:58:39.432Z,3.10
2022-08-22T08:01:10.339Z,1.87
2022-08-22T08:03:39.878Z,2.43
2022-08-22T08:06:10.204Z,1.87
2022-08-22T08:08:42.091Z,2.13
2022-08-22T08:11:13.116Z,1.90
2022-08-22T08:13:44.034Z,1.70
2022-08-22T08:16:17.894Z,2.83
2022-08-22T08:18:48.634Z,2.20
2022-08-22T08:21:25.999Z,2.00
2022-08-22T08:23:54.463Z,1.73
2022-08-22T08:26:26.297Z,1.40
2022-08-22T08:28:55.401Z,2.10
2022-08-22T08:31:26.925Z,1.70
2022-08-22T08:34:01.674Z,2.90
2022-08-22T08:36:37.899Z,2.53
2022-08-22T08:39:16.052Z,1.43
2022-08-22T08:42:09.265Z,1.30
2022-08-22T08:45:07.640Z,1.90
2022-08-22T08:48:06.075Z,1.40
2022-08-22T08:50:45.079Z,1.73
2022-08-22T08:53:39.026Z,1.60
2022-08-22T08:56:19.807Z,1.60
2022-08-22T08:58:51.814Z,1.83
2022-08-22T09:01:37.534Z,1.47
2022-08-22T09:04:27.960Z,1.83
2022-08-22T09:07:26.073Z,1.57
2022-08-22T09:10:11.298Z,1.37
2022-08-22T09:13:11.521Z,2.17
2022-08-22T09:15:58.598Z,1.70
2022-08-22T09:19:00.267Z,1.80
2022-08-22T09:21:41.021Z,1.50
2022-08-22T09:24:46.848Z,1.70
2022-08-22T09:27:19.506Z,1.10
2022-08-22T09:29:54.456Z,1.43
2022-08-22T09:32:47.448Z,1.33
2022-08-22T09:35:22.670Z,1.10
2022-08-22T09:38:01.343Z,1.10
2022-08-22T09:40:37.320Z,1.60
2022-08-22T09:43:08.792Z,1.50
2022-08-22T09:45:48.742Z,2.57
2022-08-22T09:48:32.401Z,1.63
2022-08-22T09:51:32.014Z,2.07
2022-08-22T09:54:24.389Z,1.53
2022-08-22T09:57:16.711Z,1.20
2022-08-22T10:00:13.979Z,1.87
2022-08-22T10:02:49.677Z,1.57
2022-08-22T10:05:41.025Z,2.10
2022-08-22T10:08:13.909Z,1.70
2022-08-22T10:10:55.792Z,1.77
2022-08-22T10:13:35.139Z,1.30
2022-08-22T10:16:14.330Z,1.37
2022-08-22T10:18:52.826Z,1.50
2022-08-22T10:21:28.470Z,1.23
2022-08-22T10:24:01.138Z,1.50
2022-08-22T10:26:38.592Z,1.00
2022-08-22T10:29:36.922Z,1.63
2022-08-22T10:32:14.586Z,1.50
2022-08-22T10:34:47.853Z,1.87
2022-08-22T10:37:23.822Z,1.00
2022-08-22T10:39:59.213Z,1.67
2022-08-22T10:42:34.938Z,1.60
2022-08-22T10:45:36.862Z,1.43
2022-08-22T10:48:24.124Z,1.40
2022-08-22T10:50:57.122Z,1.30
2022-08-22T10:53:34.804Z,1.43
2022-08-22T10:56:13.325Z,1.80
2022-08-22T10:58:46.892Z,1.30
2022-08-22T11:01:41.625Z,2.17
2022-08-22T11:04:13.522Z,0.80
2022-08-22T11:06:46.156Z,1.60
2022-08-22T11:09:25.890Z,3.63
2022-08-22T11:12:01.917Z,1.23
2022-08-22T11:14:58.350Z,1.17
2022-08-22T11:18:05.062Z,1.90
2022-08-22T11:20:41.684Z,1.77
2022-08-22T11:23:19.810Z,1.60
2022-08-22T11:25:55.012Z,1.57
2022-08-22T11:28:45.950Z,1.10
2022-08-22T11:31:22.508Z,1.70
2022-08-22T11:33:54.215Z,1.50
2022-08-22T11:36:31.177Z,1.50
2022-08-22T11:39:18.267Z,1.50
2022-08-22T11:41:53.461Z,1.60
2022-08-22T11:44:28.466Z,1.30
2022-08-22T11:46:57.297Z,1.93
2022-08-22T11:49:45.861Z,1.20
2022-08-22T11:52:44.425Z,1.37
2022-08-22T11:55:26.697Z,1.83
2022-08-22T11:58:11.950Z,1.53
2022-08-22T12:00:56.176Z,1.40
2022-08-22T12:03:47.038Z,1.20
2022-08-22T12:06:48.365Z,1.20
2022-08-22T12:09:41.122Z,1.63
2022-08-22T12:12:21.684Z,1.17
2022-08-22T12:14:57.516Z,1.93
2022-08-22T12:18:13.494Z,1.30
2022-08-22T12:21:01.149Z,1.23
2022-08-22T12:23:50.817Z,1.50
2022-08-22T12:26:25.829Z,1.27
2022-08-22T12:29:05.194Z,2.57
2022-08-22T12:32:12.287Z,1.10
2022-08-22T12:34:46.290Z,1.00
2022-08-22T12:37:18.294Z,1.93
2022-08-22T12:40:10.082Z,1.87
2022-08-22T12:43:10.547Z,1.10
2022-08-22T12:46:03.602Z,1.57
2022-08-22T12:49:07.494Z,1.70
2022-08-22T12:51:42.119Z,1.40
2022-08-22T12:54:37.545Z,1.20
2022-08-22T12:57:23.696Z,1.23
2022-08-22T12:59:55.626Z,1.20
2022-08-22T13:02:30.418Z,1.10
2022-08-22T13:05:02.273Z,1.40
2022-08-22T13:07:31.558Z,1.67
2022-08-22T13:10:03.629Z,1.03
2022-08-22T13:12:35.777Z,1.33
2022-08-22T13:15:17.220Z,0.90
2022-08-22T13:17:47.711Z,1.13
2022-08-22T13:20:24.211Z,1.10
2022-08-22T13:22:55.596Z,1.33
2022-08-22T13:25:26.884Z,1.00
2022-08-22T13:28:03.622Z,1.43
2022-08-22T13:30:37.575Z,1.00
2022-08-22T13:33:09.608Z,1.67
2022-08-22T13:35:44.548Z,1.73
2022-08-22T13:38:25.827Z,1.63
2022-08-22T13:40:56.120Z,1.20
2022-08-22T13:43:29.791Z,2.03
2022-08-22T13:46:01.693Z,1.50
2022-08-22T13:48:47.000Z,1.30
2022-08-22T13:51:21.200Z,0.93
2022-08-22T13:54:00.591Z,1.30
2022-08-22T13:56:32.652Z,1.27
2022-08-22T13:59:07.271Z,1.10
2022-08-22T14:01:47.022Z,1.63
2022-08-22T14:04:32.234Z,1.40
2022-08-22T14:07:23.937Z,1.20
2022-08-22T14:09:56.663Z,2.13
2022-08-22T14:12:26.532Z,1.10
2022-08-22T14:14:59.704Z,1.30
2022-08-22T14:17:32.177Z,1.40
2022-08-22T14:20:03.496Z,1.40
2022-08-22T14:22:36.466Z,1.30
2022-08-22T14:25:08.781Z,1.60
2022-08-22T14:27:39.691Z,1.20
2022-08-22T14:30:19.304Z,1.50
2022-08-22T14:32:51.867Z,1.50
2022-08-22T14:35:31.376Z,1.27
2022-08-22T14:38:17.907Z,3.73
2022-08-22T14:40:47.156Z,1.50
2022-08-22T14:43:40.278Z,1.27
2022-08-22T14:46:14.309Z,1.40
2022-08-22T14:48:46.460Z,1.47
2022-08-22T14:51:21.296Z,1.17
2022-08-22T14:53:50.035Z,1.50
2022-08-22T14:56:21.930Z,1.40
2022-08-22T14:59:06.025Z,1.27
2022-08-22T15:01:54.698Z,1.43
2022-08-22T15:04:35.433Z,2.10
2022-08-22T15:07:03.991Z,1.70
2022-08-22T15:09:34.361Z,1.43
2022-08-22T15:12:04.191Z,1.90
2022-08-22T15:14:52.114Z,1.93
2022-08-22T15:17:37.435Z,1.70
2022-08-22T15:20:13.670Z,1.40
2022-08-22T15:22:45.442Z,1.30
2022-08-22T15:25:18.309Z,1.37
2022-08-22T15:27:49.939Z,1.47
2022-08-22T15:30:21.002Z,1.50
2022-08-22T15:32:53.392Z,1.37
2022-08-22T15:35:30.175Z,1.20
2022-08-22T15:38:01.467Z,1.37
2022-08-22T15:40:34.229Z,1.20
2022-08-22T15:43:14.454Z,1.70
2022-08-22T15:45:43.934Z,2.73
2022-08-22T15:48:31.962Z,1.80
2022-08-22T15:51:09.245Z,1.33
2022-08-22T15:54:00.981Z,1.50
2022-08-22T15:56:32.037Z,4.97
2022-08-22T15:59:27.938Z,1.70
2022-08-22T16:02:00.556Z,1.27
2022-08-22T16:04:47.312Z,1.73
2022-08-22T16:07:33.932Z,1.40
2022-08-22T16:10:06.132Z,1.10
2022-08-22T16:12:38.172Z,1.50
2022-08-22T16:15:09.310Z,1.33
2022-08-22T16:17:53.295Z,1.77
2022-08-22T16:20:57.389Z,1.40
2022-08-22T16:23:25.338Z,1.23
2022-08-22T16:26:15.259Z,1.40
2022-08-22T16:28:58.200Z,1.50
2022-08-22T16:31:29.449Z,1.37
2022-08-22T16:33:59.555Z,1.60
2022-08-22T16:36:45.842Z,1.40
2022-08-22T16:39:33.970Z,1.43
2022-08-22T16:42:24.064Z,1.10
2022-08-22T16:44:56.711Z,1.30
2022-08-22T16:47:40.784Z,1.57
2022-08-22T16:50:24.439Z,1.57
2022-08-22T16:53:02.868Z,1.20
2022-08-22T16:55:55.331Z,1.50
2022-08-22T16:58:56.265Z,1.30
2022-08-22T17:01:35.761Z,1.53
2022-08-22T17:04:11.409Z,1.60
2022-08-22T17:06:51.045Z,1.70
2022-08-22T17:09:35.117Z,1.30
2022-08-22T17:12:12.063Z,1.97
2022-08-22T17:14:43.769Z,1.30
2022-08-22T17:17:26.034Z,1.33
2022-08-22T17:20:06.108Z,1.90
2022-08-22T17:22:39.189Z,4.20
2022-08-22T17:25:19.611Z,1.37
2022-08-22T17:27:52.695Z,1.50
2022-08-22T17:30:24.050Z,1.43
2022-08-22T17:33:08.114Z,1.53
2022-08-22T17:35:46.624Z,1.17
2022-08-22T17:38:24.339Z,1.57
2022-08-22T17:40:59.070Z,1.30
2022-08-22T17:43:48.574Z,1.50
2022-08-22T17:46:39.600Z,1.20
2022-08-22T17:49:15.920Z,1.87
2022-08-22T17:51:47.994Z,1.97
2022-08-22T17:54:20.535Z,1.63
2022-08-22T17:56:54.023Z,2.17
2022-08-22T17:59:37.574Z,1.37
2022-08-22T18:02:13.410Z,1.80
2022-08-22T18:04:47.271Z,1.30
2022-08-22T18:07:41.628Z,1.10
2022-08-22T18:10:14.829Z,1.37
2022-08-22T18:12:48.860Z,1.63
2022-08-22T18:15:24.466Z,2.27
2022-08-22T18:17:56.964Z,1.40
2022-08-22T18:20:29.109Z,1.60
2022-08-22T18:23:01.339Z,1.80
2022-08-22T18:25:39.992Z,2.13
2022-08-22T18:28:15.297Z,2.17
2022-08-22T18:30:54.242Z,1.33
2022-08-22T18:33:32.195Z,1.40
2022-08-22T18:36:08.752Z,1.60
2022-08-22T18:38:45.403Z,1.43
2022-08-22T18:41:20.571Z,1.60
2022-08-22T18:43:50.506Z,1.80
2022-08-22T18:46:31.766Z,1.60
2022-08-22T18:49:15.192Z,1.40
2022-08-22T18:51:44.405Z,1.60
2022-08-22T18:54:28.461Z,1.47
2022-08-22T18:57:01.893Z,3.90
2022-08-22T18:59:55.499Z,1.83
2022-08-22T19:03:01.058Z,2.53
2022-08-22T19:05:38.996Z,4.13
2022-08-22T19:08:26.186Z,1.97
2022-08-22T19:10:57.287Z,1.80
2022-08-22T19:13:43.041Z,1.80
2022-08-22T19:16:55.277Z,2.83
2022-08-22T19:19:54.792Z,2.40
2022-08-22T19:22:26.810Z,5.60
2022-08-22T19:25:18.732Z,2.20
2022-08-22T19:27:49.363Z,1.90
2022-08-22T19:30:44.966Z,2.27
2022-08-22T19:33:19.350Z,2.57
2022-08-22T19:36:12.061Z,2.70
2022-08-22T19:38:58.123Z,2.77
2022-08-22T19:41:46.219Z,2.43
2022-08-22T19:44:37.621Z,2.47
2022-08-22T19:47:16.769Z,1.73
2022-08-22T19:49:51.217Z,1.67
2022-08-22T19:52:30.067Z,2.40
2022-08-22T19:55:11.227Z,2.27
2022-08-22T19:57:46.087Z,2.37
2022-08-22T20:00:17.034Z,6.87
2022-08-22T20:02:57.385Z,4.50
2022-08-22T20:05:38.001Z,1.97
2022-08-22T20:08:17.353Z,2.50
2022-08-22T20:10:54.468Z,2.17
2022-08-22T20:13:23.767Z,2.33
2022-08-22T20:16:11.156Z,1.77
2022-08-22T20:19:01.982Z,2.07
2022-08-22T20:21:59.097Z,2.53
2022-08-22T20:24:36.540Z,2.63
2022-08-22T20:27:15.057Z,4.40
2022-08-22T20:29:48.040Z,1.83
2022-08-22T20:32:18.470Z,2.70
2022-08-22T20:34:46.850Z,1.80
2022-08-22T20:37:32.451Z,1.93
2022-08-22T20:40:53.309Z,2.97
2022-08-22T20:43:11.735Z,1.60
2022-08-22T20:45:43.678Z,1.60
2022-08-22T20:48:11.669Z,1.60
2022-08-22T20:50:39.526Z,1.93
2022-08-22T20:53:14.125Z,2.47
2022-08-22T20:55:53.018Z,2.40
2022-08-22T20:58:24.586Z,2.00
2022-08-22T21:00:55.457Z,1.57
2022-08-22T21:03:32.772Z,12.80
2022-08-22T21:06:10.574Z,6.67
2022-08-22T21:08:40.010Z,2.07
2022-08-22T21:11:25.663Z,1.70
2022-08-22T21:13:54.041Z,2.47
2022-08-22T21:16:31.428Z,2.33
2022-08-22T21:19:01.944Z,1.90
2022-08-22T21:21:32.217Z,2.40
2022-08-22T21:24:03.439Z,1.90
2022-08-22T21:26:35.188Z,6.30
2022-08-22T21:29:06.182Z,2.33
2022-08-22T21:31:36.298Z,2.33
2022-08-22T21:34:05.792Z,3.53
2022-08-22T21:36:39.001Z,2.63
2022-08-22T21:39:14.640Z,2.50
2022-08-22T21:41:48.178Z,2.13
2022-08-22T21:44:25.423Z,2.10
2022-08-22T21:46:53.592Z,2.17
2022-08-22T21:49:24.026Z,3.20
2022-08-22T21:51:53.126Z,4.83
2022-08-22T21:54:39.744Z,2.47
2022-08-22T21:57:35.735Z,3.53
2022-08-22T22:00:07.476Z,2.37
2022-08-22T22:02:42.263Z,2.07
2022-08-22T22:05:14.644Z,2.40
2022-08-22T22:07:45.228Z,2.20
2022-08-22T22:10:17.327Z,2.13
2022-08-22T22:12:47.049Z,1.97
2022-08-22T22:15:18.693Z,2.53
2022-08-22T22:17:46.727Z,1.77
2022-08-22T22:20:16.603Z,2.83
2022-08-22T22:22:46.657Z,2.20
2022-08-22T22:25:40.786Z,2.23
2022-08-22T22:28:08.002Z,2.10
2022-08-22T22:30:36.608Z,2.07
2022-08-22T22:33:04.664Z,2.30
2022-08-22T22:35:32.587Z,2.50
2022-08-22T22:38:00.562Z,2.10
2022-08-22T22:40:30.020Z,2.07
2022-08-22T22:42:57.962Z,2.63
2022-08-22T22:45:25.904Z,2.70
2022-08-22T22:47:53.797Z,2.90
2022-08-22T22:50:21.691Z,2.70
2022-08-22T22:52:49.504Z,2.97
2022-08-22T22:55:24.401Z,2.50
2022-08-22T22:57:58.670Z,3.93
2022-08-22T23:00:30.530Z,3.03
2022-08-22T23:02:59.858Z,3.50
2022-08-22T23:05:27.841Z,3.13
2022-08-22T23:07:55.711Z,2.60
2022-08-22T23:10:23.545Z,2.70
2022-08-22T23:12:51.541Z,12.40
2022-08-22T23:15:21.036Z,2.50
2022-08-22T23:17:48.865Z,2.50
2022-08-22T23:20:16.869Z,2.80
2022-08-22T23:22:46.021Z,2.80
2022-08-22T23:25:14.043Z,3.33
2022-08-22T23:27:41.908Z,3.20
2022-08-22T23:30:11.353Z,2.77
2022-08-22T23:32:40.582Z,2.87
2022-08-22T23:35:09.414Z,2.70
2022-08-22T23:37:37.362Z,2.80
2022-08-22T23:40:07.437Z,2.57
2022-08-22T23:42:35.515Z,2.80
2022-08-22T23:45:03.855Z,2.47
2022-08-22T23:47:31.725Z,2.40
2022-08-22T23:50:06.272Z,2.53
2022-08-22T23:52:34.443Z,2.20
2022-08-22T23:55:02.254Z,7.50
2022-08-22T23:57:30.122Z,2.50
2022-08-22T23:59:58.705Z,9.03
